createdAt,value
2019-03-29T00:03:47.315Z,12.30
2019-03-29T00:07:52.452Z,12.30
2019-03-29T00:11:57.595Z,12.20
2019-03-29T00:16:02.708Z,12.30
2019-03-29T00:20:08.155Z,12.20
2019-03-29T00:24:13.267Z,12.20
2019-03-29T00:28:18.403Z,12.20
2019-03-29T00:32:23.584Z,12.20
2019-03-29T00:36:28.720Z,12.10
2019-03-29T00:40:33.800Z,12.10
2019-03-29T00:44:38.931Z,12.10
2019-03-29T00:48:44.060Z,12.20
2019-03-29T00:52:49.239Z,12.10
2019-03-29T00:56:54.379Z,12.10
2019-03-29T01:01:00.041Z,12.10
2019-03-29T01:05:05.120Z,12.10
2019-03-29T01:09:10.292Z,12.10
2019-03-29T01:13:15.424Z,12.10
2019-03-29T01:17:20.544Z,12.10
2019-03-29T01:21:25.648Z,12.10
2019-03-29T01:25:30.735Z,12.00
2019-03-29T01:29:35.855Z,12.10
2019-03-29T01:33:40.983Z,12.10
2019-03-29T01:37:46.159Z,12.00
2019-03-29T01:41:52.982Z,12.00
2019-03-29T01:45:58.204Z,12.00
2019-03-29T01:50:03.313Z,12.00
2019-03-29T01:54:08.423Z,11.90
2019-03-29T01:58:13.535Z,11.90
2019-03-29T02:02:18.685Z,11.80
2019-03-29T02:06:23.812Z,11.80
2019-03-29T02:10:29.025Z,11.70
2019-03-29T02:14:34.198Z,11.60
2019-03-29T02:18:39.970Z,11.50
2019-03-29T02:22:45.111Z,11.40
2019-03-29T02:26:50.212Z,11.30
2019-03-29T02:30:55.374Z,11.20
2019-03-29T02:35:00.526Z,11.10
2019-03-29T02:39:06.925Z,10.90
2019-03-29T02:43:12.062Z,10.80
2019-03-29T02:47:17.155Z,10.70
2019-03-29T02:51:23.249Z,10.60
2019-03-29T02:55:28.426Z,10.50
2019-03-29T02:59:33.585Z,10.40
2019-03-29T03:03:38.705Z,10.40
2019-03-29T03:07:44.148Z,10.30
2019-03-29T03:11:49.337Z,10.20
2019-03-29T03:15:54.483Z,10.10
2019-03-29T03:19:59.615Z,10.10
2019-03-29T03:24:04.863Z,10.00
2019-03-29T03:28:09.974Z,10.00
2019-03-29T03:32:15.105Z,9.90
2019-03-29T03:36:20.250Z,9.80
2019-03-29T03:40:25.385Z,9.70
2019-03-29T03:44:30.522Z,9.70
2019-03-29T03:48:35.574Z,9.60
2019-03-29T03:52:40.883Z,9.50
2019-03-29T03:56:46.560Z,9.40
2019-03-29T04:00:58.843Z,9.20
2019-03-29T04:05:03.972Z,9.10
2019-03-29T04:09:09.136Z,8.90
2019-03-29T04:13:14.312Z,8.80
2019-03-29T04:17:19.442Z,8.70
2019-03-29T04:21:24.559Z,8.60
2019-03-29T04:25:29.677Z,8.50
2019-03-29T04:29:35.084Z,8.40
2019-03-29T04:33:40.206Z,8.40
2019-03-29T04:37:45.710Z,8.40
2019-03-29T04:41:50.834Z,8.30
2019-03-29T04:50:04.535Z,8.30
2019-03-29T04:54:09.613Z,8.20
2019-03-29T04:58:14.760Z,8.20
2019-03-29T05:02:19.864Z,8.20
2019-03-29T05:06:25.320Z,8.20
2019-03-29T05:10:30.480Z,8.10
2019-03-29T05:14:35.593Z,8.10
2019-03-29T05:18:40.725Z,8.00
2019-03-29T05:22:45.940Z,8.00
2019-03-29T05:26:51.058Z,7.90
2019-03-29T05:30:56.184Z,7.90
2019-03-29T05:35:01.283Z,8.00
2019-03-29T05:39:07.937Z,8.10
2019-03-29T05:43:13.136Z,8.30
2019-03-29T05:47:18.320Z,8.50
2019-03-29T05:51:23.408Z,8.60
2019-03-29T05:55:32.871Z,8.70
2019-03-29T05:59:35.234Z,8.60
2019-03-29T06:03:40.354Z,8.60
2019-03-29T06:07:45.461Z,8.60
2019-03-29T06:11:50.647Z,8.60
2019-03-29T06:15:55.720Z,8.60
2019-03-29T06:20:00.828Z,8.60
2019-03-29T06:24:05.929Z,8.60
2019-03-29T06:28:11.030Z,8.70
2019-03-29T06:32:16.195Z,8.70
2019-03-29T06:36:23.160Z,8.80
2019-03-29T06:40:28.260Z,8.80
2019-03-29T06:44:33.375Z,8.90
2019-03-29T06:48:38.471Z,9.00
2019-03-29T06:52:43.585Z,9.10
2019-03-29T06:56:48.660Z,9.10
2019-03-29T07:00:53.764Z,9.20
2019-03-29T07:04:58.868Z,9.30
2019-03-29T07:09:05.866Z,9.40
2019-03-29T07:13:10.992Z,9.50
2019-03-29T07:17:16.187Z,9.60
2019-03-29T07:21:22.121Z,9.70
2019-03-29T07:25:27.581Z,9.80
2019-03-29T07:29:32.679Z,9.90
2019-03-29T07:33:37.895Z,10.00
2019-03-29T07:37:42.971Z,9.80
2019-03-29T07:41:48.077Z,9.60
2019-03-29T07:45:53.181Z,9.60
2019-03-29T07:49:58.281Z,9.60
2019-03-29T07:54:03.367Z,9.60
2019-03-29T07:58:08.457Z,9.60
2019-03-29T08:02:13.590Z,9.80
2019-03-29T08:06:18.727Z,10.50
2019-03-29T08:10:29.124Z,11.60
2019-03-29T08:14:31.344Z,12.30
2019-03-29T08:18:36.414Z,12.70
2019-03-29T08:22:41.543Z,12.90
2019-03-29T08:26:46.665Z,12.90
2019-03-29T08:30:51.779Z,12.80
2019-03-29T08:34:56.868Z,12.80
2019-03-29T08:39:01.974Z,12.80
2019-03-29T08:43:07.121Z,12.80
2019-03-29T08:47:12.239Z,12.80
2019-03-29T08:51:17.449Z,12.80
2019-03-29T08:55:22.599Z,12.90
2019-03-29T08:59:27.690Z,12.90
2019-03-29T09:03:32.833Z,12.90
2019-03-29T09:07:44.674Z,13.00
2019-03-29T09:11:44.774Z,13.00
2019-03-29T09:15:49.920Z,13.00
2019-03-29T09:19:55.097Z,13.10
2019-03-29T09:24:00.174Z,13.10
2019-03-29T09:28:05.304Z,13.20
2019-03-29T09:32:10.439Z,13.20
2019-03-29T09:36:15.578Z,13.30
2019-03-29T09:40:21.198Z,13.30
2019-03-29T09:44:26.380Z,13.10
2019-03-29T09:48:34.422Z,12.90
2019-03-29T09:52:38.320Z,12.80
2019-03-29T09:56:43.438Z,13.10
2019-03-29T10:00:48.933Z,13.40
2019-03-29T10:04:53.989Z,13.50
2019-03-29T10:08:59.237Z,13.60
2019-03-29T10:13:04.352Z,13.70
2019-03-29T10:17:09.471Z,13.80
2019-03-29T10:21:17.150Z,13.90
2019-03-29T10:25:21.800Z,14.00
2019-03-29T10:29:27.004Z,14.00
2019-03-29T10:33:32.153Z,14.10
2019-03-29T10:37:37.271Z,14.20
2019-03-29T10:41:42.683Z,14.30
2019-03-29T10:45:47.758Z,14.40
2019-03-29T10:49:52.857Z,14.30
2019-03-29T10:53:57.985Z,14.40
2019-03-29T10:58:03.108Z,14.50
2019-03-29T11:02:08.246Z,14.60
2019-03-29T11:06:13.315Z,14.60
2019-03-29T11:10:31.578Z,14.70
2019-03-29T11:14:36.688Z,14.70
2019-03-29T11:18:41.814Z,14.80
2019-03-29T11:22:46.924Z,14.90
2019-03-29T11:26:52.037Z,15.00
2019-03-29T11:30:57.099Z,15.00
2019-03-29T11:35:02.225Z,15.10
2019-03-29T11:39:08.864Z,15.20
2019-03-29T11:43:26.125Z,15.10
2019-03-29T11:47:20.860Z,15.30
2019-03-29T11:51:25.935Z,15.30
2019-03-29T11:55:31.044Z,15.40
2019-03-29T11:59:36.174Z,15.50
2019-03-29T12:03:41.352Z,15.60
2019-03-29T12:07:46.473Z,15.70
2019-03-29T12:11:51.576Z,15.70
2019-03-29T12:15:56.692Z,15.80
2019-03-29T12:20:01.782Z,15.90
2019-03-29T12:24:06.897Z,16.00
2019-03-29T12:28:11.999Z,16.20
2019-03-29T12:32:17.094Z,16.30
2019-03-29T12:36:22.153Z,16.40
2019-03-29T12:40:27.343Z,16.30
2019-03-29T12:44:32.437Z,16.20
2019-03-29T12:48:37.571Z,16.30
2019-03-29T12:52:42.632Z,16.30
2019-03-29T12:56:47.740Z,16.40
2019-03-29T13:00:52.957Z,16.50
2019-03-29T13:04:58.068Z,16.70
2019-03-29T13:09:03.209Z,16.70
2019-03-29T13:13:08.625Z,16.80
2019-03-29T13:17:13.958Z,16.90
2019-03-29T13:21:19.039Z,17.10
2019-03-29T13:25:24.136Z,17.20
2019-03-29T13:29:29.234Z,17.30
2019-03-29T13:33:34.302Z,17.50
2019-03-29T13:37:39.391Z,17.60
2019-03-29T13:41:44.480Z,17.70
2019-03-29T13:45:49.581Z,17.80
2019-03-29T13:49:54.644Z,17.80
2019-03-29T13:53:59.751Z,17.90
2019-03-29T13:58:04.961Z,17.90
2019-03-29T14:02:10.062Z,18.00
2019-03-29T14:06:15.160Z,18.10
2019-03-29T14:10:20.278Z,18.20
2019-03-29T14:14:37.708Z,18.30
2019-03-29T14:18:32.120Z,18.50
2019-03-29T14:22:37.249Z,18.80
2019-03-29T14:26:42.349Z,19.00
2019-03-29T14:30:47.455Z,19.20
2019-03-29T14:34:52.513Z,19.10
2019-03-29T14:38:57.620Z,19.10
2019-03-29T14:43:02.716Z,19.10
2019-03-29T14:47:07.829Z,19.10
2019-03-29T14:51:13.305Z,19.20
2019-03-29T14:55:18.376Z,19.30
2019-03-29T14:59:23.483Z,19.40
2019-03-29T15:03:28.647Z,19.40
2019-03-29T15:07:33.933Z,19.40
2019-03-29T15:11:39.091Z,19.50
2019-03-29T15:15:44.173Z,19.50
2019-03-29T15:19:49.272Z,19.50
2019-03-29T15:23:54.480Z,19.50
2019-03-29T15:27:59.590Z,19.50
2019-03-29T15:32:04.699Z,19.50
2019-03-29T15:36:09.768Z,19.50
2019-03-29T15:40:15.148Z,19.40
2019-03-29T15:44:20.271Z,19.40
2019-03-29T15:48:25.394Z,19.30
2019-03-29T15:52:30.511Z,19.30
2019-03-29T15:56:35.587Z,19.30
2019-03-29T16:00:40.727Z,19.20
2019-03-29T16:04:45.925Z,19.20
2019-03-29T16:08:51.040Z,19.20
2019-03-29T16:12:56.189Z,19.20
2019-03-29T16:17:01.257Z,19.10
2019-03-29T16:21:06.457Z,19.00
2019-03-29T16:25:11.665Z,19.00
2019-03-29T16:29:16.776Z,18.90
2019-03-29T16:33:21.880Z,18.90
2019-03-29T16:37:26.957Z,18.80
2019-03-29T16:41:32.078Z,18.70
2019-03-29T16:45:47.311Z,18.60
2019-03-29T16:49:43.956Z,18.50
2019-03-29T16:53:49.066Z,18.50
2019-03-29T16:57:54.145Z,18.40
2019-03-29T17:01:59.240Z,18.30
2019-03-29T17:06:04.352Z,18.20
2019-03-29T17:10:09.673Z,18.00
2019-03-29T17:14:15.361Z,18.00
2019-03-29T17:18:29.219Z,17.90
2019-03-29T17:22:27.274Z,17.70
2019-03-29T17:26:32.533Z,17.60
2019-03-29T17:31:02.592Z,17.50
2019-03-29T17:35:07.968Z,17.40
2019-03-29T17:39:13.055Z,17.30
2019-03-29T17:43:18.192Z,17.10
2019-03-29T17:48:47.415Z,16.90
2019-03-29T17:52:57.296Z,16.70
2019-03-29T17:57:03.946Z,16.60
2019-03-29T18:01:10.016Z,16.50
2019-03-29T18:05:18.346Z,16.30
2019-03-29T18:09:26.989Z,16.20
2019-03-29T18:13:33.246Z,16.10
2019-03-29T18:17:40.523Z,15.90
2019-03-29T18:21:47.813Z,15.70
2019-03-29T18:25:52.924Z,15.60
2019-03-29T18:29:58.013Z,15.40
2019-03-29T18:34:03.282Z,15.30
2019-03-29T18:38:08.436Z,15.20
2019-03-29T18:42:13.488Z,15.00
2019-03-29T18:46:18.599Z,14.80
2019-03-29T18:50:23.701Z,14.70
2019-03-29T18:54:30.140Z,14.90
2019-03-29T18:58:35.276Z,15.00
2019-03-29T19:02:40.434Z,15.00
2019-03-29T19:06:45.613Z,15.00
2019-03-29T19:10:52.140Z,15.00
2019-03-29T19:14:57.236Z,14.90
2019-03-29T19:19:09.914Z,14.90
2019-03-29T19:23:09.296Z,14.80
2019-03-29T19:27:14.460Z,14.70
2019-03-29T19:31:20.296Z,14.60
2019-03-29T19:35:25.644Z,14.50
2019-03-29T19:39:30.858Z,14.40
2019-03-29T19:43:35.981Z,14.30
2019-03-29T19:47:41.097Z,13.80
2019-03-29T19:51:47.334Z,13.40
2019-03-29T19:55:52.428Z,13.20
2019-03-29T19:59:57.553Z,13.00
2019-03-29T20:04:02.645Z,12.80
2019-03-29T20:08:09.503Z,12.60
2019-03-29T20:12:15.152Z,12.50
2019-03-29T20:16:20.240Z,12.40
2019-03-29T20:20:26.296Z,12.30
2019-03-29T20:24:31.412Z,12.20
2019-03-29T20:28:36.499Z,12.10
2019-03-29T20:32:41.636Z,12.00
2019-03-29T20:36:46.721Z,11.90
2019-03-29T20:40:51.839Z,11.70
2019-03-29T20:44:56.944Z,11.60
2019-03-29T20:49:02.056Z,11.50
2019-03-29T20:53:07.180Z,11.30
2019-03-29T20:57:12.255Z,11.10
2019-03-29T21:01:17.365Z,11.00
2019-03-29T21:05:22.481Z,11.00
2019-03-29T21:09:27.641Z,10.90
2019-03-29T21:13:32.848Z,11.20
2019-03-29T21:17:38.015Z,11.40
2019-03-29T21:21:43.144Z,11.50
2019-03-29T21:25:48.252Z,11.60
2019-03-29T21:29:53.357Z,11.60
2019-03-29T21:33:58.490Z,11.50
2019-03-29T21:38:03.604Z,11.50
2019-03-29T21:42:08.737Z,11.50
2019-03-29T21:46:13.862Z,11.40
2019-03-29T21:50:19.118Z,11.20
2019-03-29T21:54:24.575Z,11.10
2019-03-29T21:58:29.660Z,11.00
2019-03-29T22:02:34.813Z,10.90
2019-03-29T22:06:39.929Z,10.80
2019-03-29T22:10:45.089Z,10.70
2019-03-29T22:14:50.224Z,10.70
2019-03-29T22:18:55.311Z,10.70
2019-03-29T22:23:00.489Z,10.70
2019-03-29T22:27:05.607Z,10.70
2019-03-29T22:31:10.755Z,10.60
2019-03-29T22:35:15.918Z,10.60
2019-03-29T22:39:21.015Z,10.50
2019-03-29T22:43:26.276Z,10.40
2019-03-29T22:47:31.403Z,10.30
2019-03-29T22:51:36.524Z,10.30
2019-03-29T22:55:41.639Z,10.20
2019-03-29T22:59:46.716Z,10.10
2019-03-29T23:03:51.876Z,10.00
2019-03-29T23:07:57.008Z,9.90
2019-03-29T23:12:02.161Z,9.80
2019-03-29T23:16:05.917Z,9.70
2019-03-29T23:20:09.735Z,9.20
2019-03-29T23:24:13.504Z,8.90
2019-03-29T23:28:17.301Z,8.60
2019-03-29T23:32:21.067Z,8.40
2019-03-29T23:36:24.823Z,8.30
2019-03-29T23:40:29.896Z,8.20
2019-03-29T23:44:35.019Z,8.10
2019-03-29T23:48:40.137Z,8.50
2019-03-29T23:52:45.276Z,8.70
2019-03-29T23:56:50.384Z,8.90
